Time;durP1;ratioP1;P1;durP2;ratioP2;P2;SDS_P1;SDS_P2;PMS_P1;PMS_P2;Temp;Humidity;BMP_temperature;BMP_pressure;BME280_temperature;BME280_humidity;BME280_pressure;Samples;Min_cycle;Max_cycle;Signal;HPM_P1;HPM_P2
2024/02/12 00:02:18;;;;;;;2.50;1.30;;;6.10;1.00;;;;;;5099328;28;20409;-41
2024/02/12 00:04:47;;;;;;;1.40;1.00;;;6.10;1.00;;;;;;5101054;28;20425;-45
2024/02/12 00:07:16;;;;;;;2.50;1.27;;;6.10;1.00;;;;;;5118202;28;20483;-42
2024/02/12 00:09:43;;;;;;;2.10;1.03;;;6.10;1.00;;;;;;5117769;28;21072;-41
2024/02/12 00:12:11;;;;;;;1.73;1.50;;;6.10;1.00;;;;;;5117203;28;20418;-41
2024/02/12 00:14:39;;;;;;;1.50;1.10;;;6.10;1.00;;;;;;5117275;28;20419;-44
2024/02/12 00:17:05;;;;;;;1.50;1.10;;;6.20;1.00;;;;;;5117953;28;20413;-43
2024/02/12 00:19:34;;;;;;;1.57;1.20;;;6.20;1.00;;;;;;5117934;28;20504;-40
2024/02/12 00:22:01;;;;;;;2.60;1.30;;;6.10;1.00;;;;;;5117248;28;20176;-43
2024/02/12 00:24:28;;;;;;;1.80;1.20;;;6.10;1.00;;;;;;5117634;28;20754;-42
2024/02/12 00:26:59;;;;;;;2.30;1.27;;;6.10;1.00;;;;;;5117689;28;20435;-42
2024/02/12 00:29:26;;;;;;;3.33;1.73;;;6.10;1.00;;;;;;5117670;28;20480;-41
2024/02/12 00:31:53;;;;;;;1.50;1.03;;;6.10;1.00;;;;;;5116921;28;20677;-41
2024/02/12 00:34:20;;;;;;;1.77;1.30;;;6.10;1.00;;;;;;5117875;28;20445;-43
2024/02/12 00:36:49;;;;;;;1.97;1.17;;;6.10;1.00;;;;;;5118387;28;20417;-41
2024/02/12 00:39:14;;;;;;;1.40;0.97;;;6.10;1.00;;;;;;5118879;28;20422;-45
2024/02/12 00:41:40;;;;;;;1.60;0.93;;;6.00;1.00;;;;;;5117304;28;20482;-42
2024/02/12 00:44:06;;;;;;;2.37;0.97;;;6.00;1.00;;;;;;5117485;28;20186;-41
2024/02/12 00:46:32;;;;;;;1.50;0.80;;;6.00;1.00;;;;;;5118218;28;20176;-42
2024/02/12 00:48:57;;;;;;;1.70;1.23;;;6.00;1.00;;;;;;5118616;28;20488;-42
2024/02/12 00:51:23;;;;;;;1.80;0.90;;;6.00;1.00;;;;;;5118892;28;20237;-41
2024/02/12 00:53:49;;;;;;;1.93;1.30;;;6.00;1.00;;;;;;5118517;28;20180;-42
2024/02/12 00:56:15;;;;;;;2.00;1.20;;;6.10;1.00;;;;;;5117979;28;20172;-41
2024/02/12 00:58:42;;;;;;;1.20;0.90;;;6.10;1.00;;;;;;5116777;28;20534;-42
2024/02/12 01:01:10;;;;;;;2.70;1.23;;;6.00;1.00;;;;;;5117329;28;20426;-43
2024/02/12 01:03:36;;;;;;;1.70;0.90;;;6.10;1.00;;;;;;5099853;28;20433;-41
2024/02/12 01:06:02;;;;;;;2.07;1.30;;;6.10;1.00;;;;;;5099981;28;20436;-43
2024/02/12 01:08:27;;;;;;;1.87;1.20;;;6.10;1.00;;;;;;5116736;28;20428;-41
2024/02/12 01:10:53;;;;;;;2.80;0.90;;;6.10;1.00;;;;;;5116950;28;20484;-41
2024/02/12 01:13:19;;;;;;;1.40;1.00;;;6.10;1.00;;;;;;5116669;28;20260;-42
2024/02/12 01:15:47;;;;;;;2.47;1.17;;;6.00;1.00;;;;;;5116876;28;20176;-44
2024/02/12 01:18:14;;;;;;;1.43;1.10;;;6.00;1.00;;;;;;5116471;28;20421;-41
2024/02/12 01:20:39;;;;;;;2.17;1.00;;;6.10;1.00;;;;;;5116998;28;20861;-42
2024/02/12 01:23:06;;;;;;;1.60;1.03;;;6.10;1.00;;;;;;5117641;28;20413;-43
2024/02/12 01:25:32;;;;;;;1.20;0.90;;;6.00;1.00;;;;;;5117561;28;20185;-42
2024/02/12 01:28:00;;;;;;;2.23;1.27;;;6.10;1.00;;;;;;5117431;28;20497;-44
2024/02/12 01:30:26;;;;;;;1.60;1.20;;;6.00;1.00;;;;;;5117602;28;20542;-43
2024/02/12 01:32:55;;;;;;;1.30;1.10;;;6.00;1.00;;;;;;5116666;28;20420;-42
2024/02/12 01:35:20;;;;;;;1.40;1.00;;;6.10;1.00;;;;;;5118182;28;20517;-41
2024/02/12 01:37:46;;;;;;;1.60;1.17;;;6.10;1.00;;;;;;5117526;28;20508;-40
2024/02/12 01:40:13;;;;;;;1.80;1.10;;;6.10;1.00;;;;;;5117683;28;20188;-42
2024/02/12 01:42:39;;;;;;;2.70;1.20;;;6.00;1.00;;;;;;5115983;28;20478;-41
2024/02/12 01:45:13;;;;;;;3.83;1.20;;;6.10;1.00;;;;;;5115974;28;20950;-41
2024/02/12 01:47:48;;;;;;;1.67;1.27;;;6.00;1.00;;;;;;5099097;28;20180;-45
2024/02/12 01:50:13;;;;;;;1.40;1.03;;;6.00;1.00;;;;;;5118776;28;20858;-43
2024/02/12 01:52:48;;;;;;;1.77;1.13;;;6.00;1.00;;;;;;5120333;28;20417;-42
2024/02/12 01:55:14;;;;;;;1.20;1.10;;;6.00;1.00;;;;;;5120310;28;20175;-43
2024/02/12 01:57:41;;;;;;;2.10;1.23;;;6.00;1.00;;;;;;5120040;28;20479;-41
2024/02/12 02:00:11;;;;;;;2.50;1.03;;;6.00;1.00;;;;;;5121454;28;20477;-42
2024/02/12 02:02:40;;;;;;;1.40;1.10;;;6.00;1.00;;;;;;5120058;28;20417;-41
2024/02/12 02:05:06;;;;;;;1.80;1.20;;;6.00;1.00;;;;;;5120177;28;20811;-42
2024/02/12 02:07:33;;;;;;;2.67;1.03;;;6.00;1.00;;;;;;5103417;28;20521;-45
2024/02/12 02:09:58;;;;;;;2.00;1.27;;;6.10;1.00;;;;;;5120963;28;20483;-42
2024/02/12 02:12:27;;;;;;;1.80;1.10;;;6.10;1.00;;;;;;5119556;28;20551;-41
2024/02/12 02:14:52;;;;;;;5.13;1.33;;;6.10;1.00;;;;;;5118563;28;20171;-40
2024/02/12 02:17:20;;;;;;;2.20;1.20;;;6.10;1.00;;;;;;5101005;28;20424;-40
2024/02/12 02:19:48;;;;;;;4.03;1.37;;;6.10;1.00;;;;;;5119656;28;20188;-41
2024/02/12 02:22:17;;;;;;;2.93;2.07;;;6.20;1.00;;;;;;5120429;28;20429;-43
2024/02/12 02:24:42;;;;;;;1.60;1.20;;;6.20;1.00;;;;;;5120702;28;20437;-42
2024/02/12 02:27:10;;;;;;;1.57;1.00;;;6.20;1.00;;;;;;5119010;28;20707;-42
2024/02/12 02:29:37;;;;;;;2.20;1.07;;;6.20;1.00;;;;;;5120729;28;20199;-42
2024/02/12 02:32:04;;;;;;;1.70;1.20;;;6.30;1.00;;;;;;5120414;28;20656;-41
2024/02/12 02:34:29;;;;;;;1.47;1.00;;;6.20;1.00;;;;;;5101015;28;20433;-41
2024/02/12 02:36:56;;;;;;;1.20;0.90;;;6.20;1.00;;;;;;5118830;28;20502;-44
2024/02/12 02:39:22;;;;;;;1.47;1.07;;;6.20;1.00;;;;;;5118795;28;20176;-44
2024/02/12 02:41:48;;;;;;;1.60;1.00;;;6.20;1.00;;;;;;5118187;28;20421;-41
2024/02/12 02:44:14;;;;;;;1.13;0.97;;;6.30;1.00;;;;;;5118580;28;20194;-41
2024/02/12 02:46:40;;;;;;;2.03;0.90;;;6.30;1.00;;;;;;5119179;28;20429;-41
2024/02/12 02:49:05;;;;;;;1.63;0.90;;;6.30;1.00;;;;;;5119589;28;20273;-41
2024/02/12 02:51:31;;;;;;;1.53;0.93;;;6.20;1.00;;;;;;5119254;28;20490;-44
2024/02/12 02:53:57;;;;;;;1.87;1.20;;;6.20;1.00;;;;;;5119432;28;20182;-43
2024/02/12 02:56:23;;;;;;;1.53;1.07;;;6.10;1.00;;;;;;5101558;28;20516;-41
2024/02/12 02:58:50;;;;;;;1.20;0.93;;;6.20;1.00;;;;;;5118286;28;20224;-41
2024/02/12 03:01:22;;;;;;;1.83;0.90;;;6.20;1.00;;;;;;5116808;28;20843;-42
2024/02/12 03:03:50;;;;;;;1.60;1.20;;;6.10;1.00;;;;;;5115314;28;20858;-42
2024/02/12 03:06:16;;;;;;;1.10;0.80;;;6.10;1.00;;;;;;5116260;28;20433;-40
2024/02/12 03:08:42;;;;;;;2.20;1.00;;;6.20;1.00;;;;;;5118022;28;20425;-41
2024/02/12 03:11:08;;;;;;;1.13;0.67;;;6.20;1.00;;;;;;5118422;28;20457;-43
2024/02/12 03:13:36;;;;;;;2.20;1.00;;;6.20;1.00;;;;;;5118713;28;20296;-42
2024/02/12 03:16:02;;;;;;;2.60;1.10;;;6.20;1.00;;;;;;5117519;28;20491;-44
2024/02/12 03:18:28;;;;;;;1.20;0.83;;;6.20;1.00;;;;;;5115860;28;20572;-41
2024/02/12 03:20:54;;;;;;;1.50;1.10;;;6.20;1.00;;;;;;5116110;28;20251;-44
2024/02/12 03:23:21;;;;;;;1.13;0.83;;;6.20;1.00;;;;;;5116091;28;20868;-43
2024/02/12 03:26:24;;;;;;;1.73;0.80;;;6.20;1.00;;;;;;5119006;28;20720;-40
2024/02/12 03:28:50;;;;;;;1.57;0.73;;;6.20;1.00;;;;;;5119818;28;20902;-41
2024/02/12 03:31:16;;;;;;;2.10;1.20;;;6.30;1.00;;;;;;5119254;28;20445;-41
2024/02/12 03:33:42;;;;;;;2.57;1.00;;;6.20;1.00;;;;;;5119390;28;20437;-41
2024/02/12 03:36:08;;;;;;;1.93;0.80;;;6.30;1.00;;;;;;5118593;28;20274;-41
2024/02/12 03:38:34;;;;;;;1.40;0.60;;;6.30;1.00;;;;;;5118788;28;20715;-41
2024/02/12 03:41:00;;;;;;;0.83;0.67;;;6.20;1.00;;;;;;5118952;28;20429;-41
2024/02/12 03:43:27;;;;;;;1.90;0.90;;;6.20;1.00;;;;;;5119565;28;20179;-45
2024/02/12 03:45:56;;;;;;;2.27;1.17;;;6.30;1.00;;;;;;5119005;27;20195;-42
2024/02/12 04:02:04;;;;;;;2.00;1.00;;;6.20;1.00;;;;;;5118520;28;20420;-43
2024/02/12 04:04:30;;;;;;;1.10;0.70;;;6.20;1.00;;;;;;5118589;28;20547;-42
2024/02/12 04:06:56;;;;;;;1.73;0.73;;;6.20;1.00;;;;;;5118768;28;20569;-42
2024/02/12 04:09:22;;;;;;;1.00;0.70;;;6.30;1.00;;;;;;5118721;28;20249;-44
2024/02/12 04:11:49;;;;;;;0.80;0.60;;;6.30;1.00;;;;;;5118330;28;20414;-41
2024/02/12 04:14:15;;;;;;;1.13;0.70;;;6.30;1.00;;;;;;5118129;28;20184;-44
2024/02/12 04:16:41;;;;;;;1.43;0.90;;;6.30;1.00;;;;;;5117652;28;20422;-41
2024/02/12 04:19:10;;;;;;;1.50;0.80;;;6.30;1.00;;;;;;5117132;28;20436;-44
2024/02/12 04:21:37;;;;;;;1.20;0.70;;;6.30;1.00;;;;;;5117891;28;20437;-42
2024/02/12 04:24:04;;;;;;;1.20;0.70;;;6.30;1.00;;;;;;5117938;28;20425;-44
2024/02/12 04:26:37;;;;;;;1.57;0.80;;;6.40;1.00;;;;;;5118217;28;20409;-43
2024/02/12 04:29:05;;;;;;;1.13;0.70;;;6.40;1.00;;;;;;5117356;28;20520;-43
2024/02/12 04:31:36;;;;;;;1.40;0.83;;;6.40;1.00;;;;;;5098647;28;20866;-41
2024/02/12 04:34:03;;;;;;;2.20;1.30;;;6.40;1.00;;;;;;5117711;28;20425;-41
2024/02/12 04:36:31;;;;;;;1.20;0.90;;;6.40;1.00;;;;;;5118381;28;20426;-42
2024/02/12 04:38:56;;;;;;;3.70;1.13;;;6.40;1.00;;;;;;5117712;28;20783;-42
2024/02/12 04:41:24;;;;;;;1.47;1.00;;;6.40;1.00;;;;;;5116207;28;20516;-43
2024/02/12 04:43:49;;;;;;;2.30;1.27;;;6.40;1.00;;;;;;5116324;28;20463;-43
2024/02/12 04:46:15;;;;;;;1.20;0.97;;;6.30;1.00;;;;;;5117282;28;20429;-45
2024/02/12 04:48:40;;;;;;;1.53;1.23;;;6.20;1.00;;;;;;5117366;28;20446;-43
2024/02/12 04:51:06;;;;;;;1.60;1.20;;;6.20;1.00;;;;;;5117268;28;20310;-41
2024/02/12 04:53:32;;;;;;;1.40;1.23;;;6.10;1.00;;;;;;5117500;28;20251;-40
2024/02/12 04:55:57;;;;;;;2.63;1.20;;;6.20;1.00;;;;;;5117140;28;20176;-42
2024/02/12 04:58:23;;;;;;;1.40;1.20;;;6.20;1.00;;;;;;5117086;28;20251;-41
2024/02/12 05:00:49;;;;;;;1.90;1.03;;;6.10;1.00;;;;;;5117603;28;20552;-43
2024/02/12 05:03:16;;;;;;;2.00;0.90;;;6.10;1.00;;;;;;5117944;28;20195;-41
2024/02/12 05:05:41;;;;;;;1.77;1.20;;;6.00;1.00;;;;;;5099736;28;20187;-43
2024/02/12 05:08:07;;;;;;;1.10;1.00;;;6.00;1.00;;;;;;5116768;28;20826;-41
2024/02/12 05:10:33;;;;;;;1.20;1.00;;;6.10;1.00;;;;;;5116318;28;20472;-43
2024/02/12 05:12:59;;;;;;;1.10;0.90;;;6.10;1.00;;;;;;5116272;28;20197;-42
2024/02/12 05:15:25;;;;;;;1.40;1.00;;;6.00;1.00;;;;;;5116114;28;20172;-44
2024/02/12 05:18:14;;;;;;;3.33;0.90;;;5.90;1.00;;;;;;5116758;28;20700;-42
2024/02/12 05:23:25;;;;;;;3.10;1.60;;;5.90;1.00;;;;;;5114227;28;20451;-41
2024/02/12 05:25:50;;;;;;;2.50;1.17;;;5.80;1.00;;;;;;5114274;28;20417;-45
2024/02/12 05:28:17;;;;;;;1.70;1.50;;;5.80;1.00;;;;;;5095842;28;20439;-42
2024/02/12 05:30:42;;;;;;;1.50;1.30;;;5.70;1.00;;;;;;5114279;28;20279;-42
2024/02/12 05:33:09;;;;;;;2.60;2.17;;;5.70;1.00;;;;;;5114577;28;20490;-42
2024/02/12 05:35:35;;;;;;;3.23;2.63;;;5.70;1.00;;;;;;5113863;28;20466;-43
2024/02/12 05:38:01;;;;;;;3.30;2.13;;;5.70;1.00;;;;;;5113812;28;20807;-42
2024/02/12 05:40:27;;;;;;;2.00;1.67;;;5.70;1.00;;;;;;5115998;28;20440;-41
2024/02/12 05:42:52;;;;;;;1.60;1.50;;;5.70;1.00;;;;;;5117142;28;20244;-42
2024/02/12 05:45:18;;;;;;;2.17;1.57;;;5.70;1.00;;;;;;5116156;28;20191;-46
2024/02/12 05:47:44;;;;;;;2.70;1.90;;;5.70;1.00;;;;;;5114376;28;20232;-42
2024/02/12 05:50:11;;;;;;;2.17;1.73;;;5.70;1.00;;;;;;5115953;28;20453;-41
2024/02/12 05:52:38;;;;;;;2.07;1.80;;;5.70;1.00;;;;;;5114281;28;20799;-43
2024/02/12 05:55:05;;;;;;;2.67;1.97;;;5.70;1.00;;;;;;5114628;28;20589;-42
2024/02/12 05:57:31;;;;;;;2.50;2.10;;;5.70;1.00;;;;;;5114038;28;20422;-42
2024/02/12 05:59:57;;;;;;;2.17;1.90;;;5.70;1.00;;;;;;5113860;28;20461;-44
2024/02/12 06:02:22;;;;;;;2.30;2.07;;;5.70;1.00;;;;;;5114099;28;20314;-44
2024/02/12 06:04:48;;;;;;;2.93;2.00;;;5.70;1.00;;;;;;5116186;28;20262;-41
2024/02/12 06:07:15;;;;;;;2.70;1.73;;;5.70;1.00;;;;;;5113743;28;20183;-43
2024/02/12 06:09:40;;;;;;;2.97;2.10;;;5.70;1.00;;;;;;5115813;28;20229;-43
2024/02/12 06:12:07;;;;;;;2.30;1.73;;;5.70;1.00;;;;;;5115607;28;20528;-43
2024/02/12 06:14:33;;;;;;;3.13;1.90;;;5.70;1.00;;;;;;5114601;28;20178;-46
2024/02/12 06:16:59;;;;;;;3.10;2.40;;;5.70;1.00;;;;;;5114044;28;20417;-43
2024/02/12 06:19:25;;;;;;;2.83;2.30;;;5.70;1.00;;;;;;5095760;28;20168;-41
2024/02/12 06:21:51;;;;;;;3.63;2.37;;;5.60;1.00;;;;;;5096491;28;20436;-43
2024/02/12 06:24:17;;;;;;;6.17;2.40;;;5.70;1.00;;;;;;5114696;28;20445;-45
2024/02/12 06:26:42;;;;;;;2.63;2.33;;;5.70;1.00;;;;;;5113576;28;20948;-41
2024/02/12 06:29:08;;;;;;;2.53;2.03;;;5.70;1.00;;;;;;5112167;28;20194;-41
2024/02/12 06:31:42;;;;;;;2.93;2.50;;;5.70;1.00;;;;;;5113594;28;20508;-44
2024/02/12 06:34:08;;;;;;;2.83;2.33;;;5.70;1.00;;;;;;5110821;28;20428;-41
2024/02/12 06:36:33;;;;;;;2.60;2.13;;;5.70;1.00;;;;;;5116841;28;20418;-41
2024/02/12 06:38:59;;;;;;;2.67;2.33;;;5.80;1.00;;;;;;5099864;28;20453;-42
2024/02/12 06:41:25;;;;;;;6.33;2.03;;;5.80;1.00;;;;;;5118084;28;20229;-43
2024/02/12 06:43:51;;;;;;;2.53;2.10;;;5.80;1.00;;;;;;5119213;28;20196;-44
2024/02/12 06:46:16;;;;;;;2.50;2.30;;;5.80;1.00;;;;;;5119653;28;20620;-43
2024/02/12 06:48:42;;;;;;;4.67;2.50;;;5.80;1.00;;;;;;5119383;28;20413;-40
2024/02/12 06:51:11;;;;;;;5.37;2.57;;;5.90;1.00;;;;;;5118730;28;20207;-40
2024/02/12 06:53:37;;;;;;;3.17;2.60;;;5.90;1.00;;;;;;5118820;28;20172;-41
2024/02/12 06:56:07;;;;;;;3.83;2.03;;;5.90;1.00;;;;;;5118269;28;20425;-41
2024/02/12 06:58:33;;;;;;;3.07;2.53;;;5.90;1.00;;;;;;5118197;28;20249;-42
2024/02/12 07:00:59;;;;;;;3.07;2.00;;;5.90;1.00;;;;;;5117577;28;20465;-41
2024/02/12 07:03:28;;;;;;;3.17;2.13;;;5.90;1.00;;;;;;5083442;28;20253;-42
2024/02/12 07:05:54;;;;;;;2.30;2.10;;;6.00;1.00;;;;;;5099589;28;20187;-42
2024/02/12 07:08:21;;;;;;;2.73;2.40;;;6.10;1.00;;;;;;5116964;28;20824;-44
2024/02/12 07:10:47;;;;;;;4.70;3.03;;;6.10;1.00;;;;;;5118491;28;20234;-42
2024/02/12 07:13:13;;;;;;;5.03;3.37;;;6.10;1.00;;;;;;5118245;28;20448;-42
2024/02/12 07:15:38;;;;;;;3.10;2.37;;;6.10;1.00;;;;;;5118800;28;20425;-43
2024/02/12 07:18:04;;;;;;;2.53;2.33;;;6.10;1.00;;;;;;5117339;28;20285;-40
2024/02/12 07:20:30;;;;;;;3.20;2.90;;;6.10;1.00;;;;;;5115323;27;20424;-42
2024/02/12 07:22:57;;;;;;;4.00;3.50;;;6.20;1.00;;;;;;5114063;28;20479;-43
2024/02/12 07:25:22;;;;;;;3.70;2.53;;;6.30;1.00;;;;;;5113998;28;20256;-45
2024/02/12 07:27:48;;;;;;;3.30;2.70;;;6.20;1.00;;;;;;5097059;28;20866;-43
2024/02/12 07:30:14;;;;;;;2.80;1.97;;;6.20;1.00;;;;;;5115723;28;20204;-42
2024/02/12 07:32:40;;;;;;;3.00;2.63;;;6.30;1.00;;;;;;5116222;28;20453;-43
2024/02/12 07:35:06;;;;;;;4.10;2.63;;;6.40;1.00;;;;;;5117513;28;20409;-46
2024/02/12 07:37:33;;;;;;;4.00;3.60;;;6.40;1.00;;;;;;5116225;28;20176;-43
2024/02/12 07:40:00;;;;;;;3.30;2.37;;;6.50;1.00;;;;;;5116948;28;20449;-43
2024/02/12 07:42:27;;;;;;;3.70;1.90;;;6.60;1.00;;;;;;5117819;28;20460;-41
2024/02/12 07:44:53;;;;;;;2.90;2.60;;;6.70;99.90;;;;;;5117402;28;20409;-45
2024/02/12 07:47:19;;;;;;;2.10;1.90;;;6.70;99.90;;;;;;5114664;28;20432;-42
2024/02/12 07:49:45;;;;;;;3.10;2.00;;;6.70;99.90;;;;;;5116635;28;20481;-41
2024/02/12 07:52:13;;;;;;;2.40;1.87;;;6.80;99.90;;;;;;5116383;28;20433;-41
2024/02/12 07:54:40;;;;;;;2.50;2.20;;;6.80;99.90;;;;;;5096808;28;20214;-44
2024/02/12 07:57:06;;;;;;;2.23;1.87;;;6.90;99.90;;;;;;5115249;28;20436;-44
2024/02/12 07:59:32;;;;;;;2.00;1.67;;;6.80;99.90;;;;;;5116615;28;20576;-43
2024/02/12 08:01:57;;;;;;;2.80;1.87;;;6.80;99.90;;;;;;5116015;28;20766;-41
2024/02/12 08:04:23;;;;;;;1.67;1.43;;;6.70;99.90;;;;;;5117478;28;20180;-42
2024/02/12 08:06:50;;;;;;;7.07;2.10;;;6.60;99.90;;;;;;5116752;28;20191;-40
2024/02/12 08:09:17;;;;;;;3.23;1.93;;;6.60;99.90;;;;;;5100091;28;20430;-40
2024/02/12 08:11:43;;;;;;;2.83;1.83;;;6.60;1.00;;;;;;5117449;28;20413;-41
2024/02/12 08:14:11;;;;;;;2.30;1.80;;;6.70;1.00;;;;;;5114934;28;20770;-41
2024/02/12 08:16:36;;;;;;;2.30;2.07;;;6.80;1.00;;;;;;5117632;28;20445;-43
2024/02/12 08:19:02;;;;;;;2.87;1.90;;;6.90;99.90;;;;;;5115905;28;20484;-41
2024/02/12 08:21:28;;;;;;;2.43;1.90;;;7.00;99.90;;;;;;5114108;28;20191;-41
2024/02/12 08:23:53;;;;;;;2.67;2.07;;;7.00;99.90;;;;;;5097284;28;20172;-41
2024/02/12 08:26:21;;;;;;;2.10;1.70;;;7.10;99.90;;;;;;5115867;28;20587;-41
2024/02/12 08:28:47;;;;;;;4.17;2.17;;;7.30;99.90;;;;;;5115664;28;20191;-41
2024/02/12 08:31:17;;;;;;;2.77;2.23;;;7.50;1.00;;;;;;5116944;28;20473;-42
2024/02/12 08:33:42;;;;;;;2.23;1.40;;;7.70;99.90;;;;;;5117263;28;20672;-41
2024/02/12 08:36:08;;;;;;;2.17;1.90;;;7.90;99.90;;;;;;5097599;28;20434;-41
2024/02/12 08:38:34;;;;;;;3.80;2.10;;;8.00;33.00;;;;;;5079401;28;20172;-42
2024/02/12 08:41:00;;;;;;;3.20;1.80;;;7.90;90.40;;;;;;5095371;28;20267;-42
2024/02/12 08:43:25;;;;;;;2.20;1.73;;;7.90;99.90;;;;;;5096213;28;20293;-42
2024/02/12 08:45:51;;;;;;;1.97;1.70;;;8.10;99.90;;;;;;5095001;28;20572;-43
2024/02/12 08:48:17;;;;;;;2.30;1.53;;;8.40;9.20;;;;;;5095206;28;21237;-42
2024/02/12 08:50:42;;;;;;;1.80;1.50;;;8.40;1.00;;;;;;5097006;28;20211;-43
2024/02/12 08:53:08;;;;;;;1.80;1.60;;;8.40;1.00;;;;;;5096130;28;20208;-41
2024/02/12 08:55:34;;;;;;;2.50;1.43;;;8.50;1.00;;;;;;5096824;28;20215;-43
2024/02/12 08:58:00;;;;;;;2.77;2.00;;;8.60;1.00;;;;;;5097830;28;20245;-43
2024/02/12 09:00:27;;;;;;;2.93;1.87;;;8.70;1.00;;;;;;5095987;28;20965;-44
2024/02/12 09:02:53;;;;;;;3.97;1.37;;;8.90;99.90;;;;;;5113763;28;20423;-42
2024/02/12 09:05:19;;;;;;;1.77;1.40;;;9.10;99.90;;;;;;5114785;28;20422;-42
2024/02/12 09:07:44;;;;;;;3.93;1.53;;;9.60;99.90;;;;;;5114088;28;20946;-42
2024/02/12 09:10:13;;;;;;;1.80;1.30;;;10.50;99.90;;;;;;5114082;28;20207;-45
2024/02/12 09:12:39;;;;;;;3.10;1.97;;;11.50;99.90;;;;;;5114733;28;20485;-45
2024/02/12 09:15:10;;;;;;;4.23;1.90;;;12.40;1.00;;;;;;5097675;28;20421;-44
2024/02/12 09:17:36;;;;;;;3.37;1.33;;;13.20;99.90;;;;;;5117020;28;20480;-43
2024/02/12 09:20:02;;;;;;;1.93;1.50;;;13.30;99.90;;;;;;5099883;28;20673;-42
2024/02/12 09:22:29;;;;;;;4.90;2.90;;;13.50;99.90;;;;;;5117019;28;20434;-43
2024/02/12 09:24:55;;;;;;;2.80;2.00;;;13.70;28.40;;;;;;5115314;28;20417;-42
2024/02/12 09:27:20;;;;;;;2.20;0.97;;;13.90;1.00;;;;;;5087105;28;20517;-38
2024/02/12 09:29:47;;;;;;;3.87;1.80;;;14.70;99.90;;;;;;5096288;28;20211;-40
2024/02/12 09:32:14;;;;;;;1.87;1.40;;;15.10;99.90;;;;;;5097172;28;20244;-47
2024/02/12 09:34:40;;;;;;;2.20;1.60;;;16.00;99.90;;;;;;5114465;28;20426;-40
2024/02/12 09:37:06;;;;;;;1.70;1.00;;;16.70;1.00;;;;;;5095665;28;20484;-39
2024/02/12 09:39:35;;;;;;;1.60;1.50;;;17.30;1.00;;;;;;5114451;28;20464;-38
2024/02/12 09:42:03;;;;;;;1.53;1.33;;;17.80;1.00;;;;;;5114615;28;20489;-43
2024/02/12 09:44:29;;;;;;;2.40;1.70;;;17.60;1.00;;;;;;5114621;28;20413;-40
2024/02/12 09:47:02;;;;;;;2.50;1.97;;;17.00;1.00;;;;;;5114803;28;20432;-41
2024/02/12 09:49:27;;;;;;;3.03;1.70;;;16.60;1.00;;;;;;5113997;28;20463;-39
2024/02/12 09:51:55;;;;;;;2.53;1.77;;;15.50;1.00;;;;;;5113357;28;20531;-41
2024/02/12 09:54:21;;;;;;;1.80;1.50;;;15.30;1.00;;;;;;5113462;28;20366;-45
2024/02/12 09:56:48;;;;;;;2.70;1.57;;;15.60;1.00;;;;;;5079458;28;20410;-41
2024/02/12 09:59:13;;;;;;;4.00;2.00;;;15.80;1.00;;;;;;5129425;28;20453;-40
2024/02/12 10:01:41;;;;;;;4.40;2.10;;;16.30;1.00;;;;;;5113771;28;20421;-43
2024/02/12 10:04:07;;;;;;;3.63;2.20;;;16.40;1.00;;;;;;5129522;28;20206;-38
2024/02/12 10:06:32;;;;;;;2.90;2.07;;;15.90;1.00;;;;;;5113747;28;20429;-46
2024/02/12 10:09:12;;;;;;;2.70;1.77;;;15.80;1.00;;;;;;5113379;28;20190;-40
2024/02/12 10:11:37;;;;;;;2.27;1.63;;;15.60;1.00;;;;;;5117986;28;20346;-43
2024/02/12 10:14:04;;;;;;;2.60;1.90;;;15.20;1.00;;;;;;5118345;28;20520;-40
2024/02/12 10:16:33;;;;;;;1.97;1.60;;;15.00;1.00;;;;;;5118811;28;20187;-41
2024/02/12 10:18:59;;;;;;;3.00;2.00;;;14.80;1.00;;;;;;5116562;28;20450;-43
2024/02/12 10:21:25;;;;;;;2.43;1.70;;;14.30;1.00;;;;;;5116536;28;20468;-41
2024/02/12 10:23:54;;;;;;;2.20;1.93;;;14.10;1.00;;;;;;5114662;28;20420;-42
2024/02/12 10:26:22;;;;;;;2.63;2.07;;;13.60;1.00;;;;;;5115830;28;20424;-42
2024/02/12 10:28:57;;;;;;;2.97;1.93;;;13.00;6.50;;;;;;5116330;28;20765;-41
2024/02/12 10:31:23;;;;;;;3.10;1.90;;;12.10;99.90;;;;;;5115203;28;20911;-42
2024/02/12 10:33:51;;;;;;;2.20;1.87;;;11.50;99.90;;;;;;5111252;28;20441;-42
2024/02/12 10:36:20;;;;;;;2.20;1.60;;;10.90;1.00;;;;;;5116312;28;20509;-40
2024/02/12 10:38:50;;;;;;;3.30;2.10;;;10.30;99.90;;;;;;5134100;27;20401;-42
2024/02/12 10:41:27;;;;;;;2.60;2.10;;;10.10;1.00;;;;;;5117599;28;20445;-44
2024/02/12 10:43:53;;;;;;;3.17;2.13;;;9.90;99.90;;;;;;5133672;27;20444;-42
2024/02/12 10:46:20;;;;;;;3.20;2.20;;;9.70;1.00;;;;;;5116957;28;20425;-46
2024/02/12 10:48:47;;;;;;;2.67;1.83;;;9.60;99.90;;;;;;5116589;28;20459;-45
2024/02/12 10:51:17;;;;;;;5.83;2.20;;;9.80;1.00;;;;;;5134430;27;20472;-43
2024/02/12 10:53:42;;;;;;;6.03;2.83;;;9.80;1.00;;;;;;5116819;28;20486;-40
2024/02/12 10:56:08;;;;;;;2.60;1.73;;;9.70;1.00;;;;;;5116867;28;20430;-43
2024/02/12 10:58:35;;;;;;;3.00;2.20;;;9.70;99.90;;;;;;5117524;28;20310;-43
2024/02/12 11:01:00;;;;;;;3.00;2.10;;;9.50;99.90;;;;;;5116676;28;20443;-44
2024/02/12 11:03:37;;;;;;;3.93;2.20;;;9.60;99.90;;;;;;5115219;28;20566;-43
2024/02/12 11:06:08;;;;;;;2.13;1.87;;;9.50;99.90;;;;;;5131272;27;20187;-42
2024/02/12 11:08:36;;;;;;;2.23;1.93;;;9.40;99.90;;;;;;5114859;28;20406;-41
2024/02/12 11:11:03;;;;;;;2.97;2.03;;;9.30;99.90;;;;;;5130130;27;20576;-42
2024/02/12 11:13:39;;;;;;;4.23;3.83;;;9.30;99.90;;;;;;5114828;28;20705;-42
2024/02/12 11:16:06;;;;;;;3.50;2.33;;;9.40;99.90;;;;;;5115696;28;20523;-44
2024/02/12 11:18:36;;;;;;;2.07;1.50;;;9.60;99.90;;;;;;5116324;28;20429;-43
2024/02/12 11:21:04;;;;;;;2.50;1.70;;;9.80;99.90;;;;;;5118199;28;20447;-45
2024/02/12 11:23:30;;;;;;;2.60;1.63;;;9.80;28.60;;;;;;5116010;28;20699;-44
2024/02/12 11:25:59;;;;;;;2.40;1.60;;;9.70;44.60;;;;;;5117591;28;20533;-42
2024/02/12 11:28:27;;;;;;;2.00;1.03;;;9.80;99.90;;;;;;5115731;28;20439;-42
2024/02/12 11:30:53;;;;;;;2.47;1.50;;;9.70;1.00;;;;;;5097092;28;20583;-42
2024/02/12 11:33:19;;;;;;;2.00;1.50;;;9.50;1.00;;;;;;5114810;28;20568;-42
2024/02/12 11:35:45;;;;;;;1.80;1.13;;;9.50;99.90;;;;;;5113240;28;20437;-46
2024/02/12 11:38:13;;;;;;;1.50;0.80;;;9.60;1.00;;;;;;5115161;28;20172;-42
2024/02/12 11:40:39;;;;;;;2.17;1.23;;;9.80;1.00;;;;;;5117730;28;20433;-42
2024/02/12 11:43:05;;;;;;;6.30;1.20;;;10.00;1.00;;;;;;5096950;28;20447;-42
2024/02/12 11:45:35;;;;;;;1.30;0.87;;;10.00;1.00;;;;;;5117040;28;20421;-42
2024/02/12 11:48:08;;;;;;;2.93;1.23;;;10.30;1.00;;;;;;5115845;28;20195;-43
2024/02/12 11:50:35;;;;;;;2.90;1.43;;;10.70;99.90;;;;;;5114234;27;20556;-44
2024/02/12 11:53:01;;;;;;;1.57;1.10;;;11.00;1.00;;;;;;5114541;28;20426;-42
2024/02/12 11:55:27;;;;;;;2.20;1.00;;;11.00;1.00;;;;;;5114348;28;20424;-43
2024/02/12 11:57:53;;;;;;;2.10;1.50;;;10.90;1.00;;;;;;5131957;27;20437;-41
2024/02/12 12:00:21;;;;;;;1.73;1.30;;;10.80;1.00;;;;;;5116719;28;20429;-43
2024/02/12 12:02:51;;;;;;;1.37;1.13;;;10.70;1.00;;;;;;5118456;27;20191;-44
2024/02/12 12:05:25;;;;;;;2.30;1.50;;;10.70;1.00;;;;;;5128882;27;20583;-43
2024/02/12 12:07:52;;;;;;;1.90;1.10;;;10.50;1.00;;;;;;5128757;27;20451;-42
2024/02/12 12:10:26;;;;;;;2.03;1.00;;;10.50;1.00;;;;;;5113969;28;20535;-45
2024/02/12 12:12:53;;;;;;;1.87;0.90;;;10.30;1.00;;;;;;5116383;28;20501;-43
2024/02/12 12:15:20;;;;;;;1.60;0.80;;;10.20;1.00;;;;;;5116555;28;20426;-43
2024/02/12 12:17:47;;;;;;;2.50;1.00;;;10.30;1.00;;;;;;5115448;28;20413;-42
2024/02/12 12:20:15;;;;;;;1.43;1.00;;;10.10;88.70;;;;;;5113269;28;20482;-40
2024/02/12 12:22:42;;;;;;;2.13;0.83;;;10.00;99.90;;;;;;5114302;28;20429;-42
2024/02/12 12:25:09;;;;;;;1.70;1.00;;;10.00;99.90;;;;;;5115552;28;20436;-40
2024/02/12 12:27:37;;;;;;;1.30;0.90;;;10.10;99.90;;;;;;5096904;28;20449;-40
2024/02/12 12:30:13;;;;;;;2.93;1.03;;;10.00;99.90;;;;;;5116216;28;20460;-41
2024/02/12 12:32:39;;;;;;;1.70;1.10;;;10.00;99.90;;;;;;5115127;28;20414;-42
2024/02/12 12:35:07;;;;;;;2.70;1.00;;;9.90;99.90;;;;;;5115283;28;20397;-41
2024/02/12 12:37:33;;;;;;;2.53;1.40;;;9.90;1.00;;;;;;5114814;28;20512;-41
2024/02/12 12:39:59;;;;;;;2.10;1.30;;;9.90;1.00;;;;;;5112432;28;20453;-42
2024/02/12 12:42:25;;;;;;;1.67;0.90;;;9.80;1.00;;;;;;5111804;28;20534;-42
2024/02/12 12:44:51;;;;;;;1.87;0.90;;;9.70;1.00;;;;;;5114481;28;20351;-44
2024/02/12 12:47:18;;;;;;;1.60;0.70;;;9.80;1.00;;;;;;5114727;28;20497;-42
2024/02/12 12:49:44;;;;;;;2.70;1.10;;;9.90;1.00;;;;;;5116848;28;20215;-42
2024/02/12 12:52:10;;;;;;;2.00;1.00;;;10.20;99.90;;;;;;5116451;28;20421;-40
2024/02/12 12:54:39;;;;;;;2.33;0.93;;;10.70;1.00;;;;;;5116902;28;20437;-41
2024/02/12 12:57:05;;;;;;;1.53;1.00;;;10.90;1.00;;;;;;5113814;28;20182;-41
2024/02/12 12:59:31;;;;;;;1.50;1.00;;;11.40;1.00;;;;;;5114265;28;20910;-40
2024/02/12 13:01:56;;;;;;;1.80;1.40;;;12.10;99.90;;;;;;5114704;28;20578;-41
2024/02/12 13:04:23;;;;;;;1.70;0.97;;;12.40;99.90;;;;;;5113745;28;20492;-43
2024/02/12 13:06:50;;;;;;;2.20;1.50;;;12.20;99.90;;;;;;5112648;28;20484;-41
2024/02/12 13:09:19;;;;;;;2.00;1.40;;;11.70;99.90;;;;;;5111409;28;20494;-40
2024/02/12 13:11:46;;;;;;;2.13;1.00;;;11.50;99.90;;;;;;5110438;28;20497;-41
2024/02/12 13:14:12;;;;;;;5.63;3.80;;;11.20;99.90;;;;;;5112805;28;20745;-43
2024/02/12 13:16:37;;;;;;;5.33;3.23;;;10.90;99.90;;;;;;5110219;28;20716;-42
2024/02/12 13:19:04;;;;;;;3.83;1.33;;;10.50;99.90;;;;;;5111968;28;20506;-39